Terminal Aerodrome Forecast
Issued by NWS

Home | Current Version | Previous Version | Text Only | Print | Product List | Glossary On
Versions: 1 2 3 4 5 6 7 8 9 10 11 12 13 14
000
FTUS43 KICT 031129
TAFRSL
TAF
KRSL 031129Z 0312/0412 18015KT P6SM SCT080 BKN120
     FM031500 18016G24KT P6SM SCT120
     FM040100 17015KT P6SM VCTS SCT060CB BKN120
     FM040700 18011KT P6SM OVC250=

USA.gov is the U.S. government's official web portal to all federal, state and local government web resources and services.